Terminal Aerodrome Forecast
Issued by NWS Lake Charles, LA

Home | Current Version | Previous Version | Text Only | Print | Product List | Glossary On
Versions: 1 2 3 4 5 6 7 8 9 10 11 12 13 14 15 16 17
000
FTUS44 KLCH 251100
TAFLCH
TAF
KLCH 251120Z 2512/2612 VRB05KT P6SM SCT250
      TEMPO 2512/2514 5SM BR
     FM251500 27014KT P6SM SCT250
     FM260100 31009KT P6SM SCT250=

USA.gov is the U.S. government's official web portal to all federal, state and local government web resources and services.